Time;durP1;ratioP1;P1;durP2;ratioP2;P2;SDS_P1;SDS_P2;PMS_P1;PMS_P2;Temp;Humidity;BMP_temperature;BMP_pressure;BME280_temperature;BME280_humidity;BME280_pressure;Samples;Min_cycle;Max_cycle;Signal;HPM_P1;HPM_P2
2023/06/10 00:01:59;;;;;;;13.40;9.05;;;;;;;19.52;84.68;100111.19;4928617;29;20062;-70
2023/06/10 00:04:27;;;;;;;12.70;9.15;;;;;;;19.57;84.81;100129.59;4932735;28;20051;-70
2023/06/10 00:06:55;;;;;;;10.50;9.05;;;;;;;19.53;84.93;100114.75;4933972;28;20047;-70
2023/06/10 00:09:22;;;;;;;9.73;8.73;;;;;;;19.50;84.97;100115.88;4947104;28;20070;-72
2023/06/10 00:11:49;;;;;;;9.68;8.68;;;;;;;19.49;84.17;100114.19;4931756;28;20043;-71
2023/06/10 00:14:17;;;;;;;9.48;8.45;;;;;;;19.49;85.21;100127.63;4950333;28;20099;-71
2023/06/10 00:16:44;;;;;;;11.48;9.48;;;;;;;19.47;85.46;100121.50;4935252;29;20135;-70
2023/06/10 00:19:13;;;;;;;14.80;9.52;;;;;;;19.43;85.66;100119.19;4933918;29;20051;-70
2023/06/10 00:21:40;;;;;;;12.15;9.95;;;;;;;19.35;85.58;100116.34;4931556;28;20047;-71
2023/06/10 00:24:11;;;;;;;11.85;9.32;;;;;;;19.35;85.29;100116.34;4934202;28;20145;-71
2023/06/10 00:26:40;;;;;;;11.23;9.70;;;;;;;19.30;86.29;100110.53;4933985;29;20047;-71
2023/06/10 00:29:08;;;;;;;11.15;9.30;;;;;;;19.35;86.14;100122.56;4940768;28;20039;-71
2023/06/10 00:31:40;;;;;;;10.82;8.98;;;;;;;19.33;86.08;100121.84;4949161;28;20058;-71
2023/06/10 00:34:08;;;;;;;9.57;8.57;;;;;;;19.31;86.66;100121.13;4937245;29;20040;-70
2023/06/10 00:36:35;;;;;;;10.52;8.73;;;;;;;19.23;87.19;100108.38;4943012;28;20058;-71
2023/06/10 00:39:03;;;;;;;11.70;9.48;;;;;;;19.19;87.36;100106.97;4953465;28;20059;-71
2023/06/10 00:41:30;;;;;;;10.93;8.88;;;;;;;19.14;87.84;100106.50;4938053;29;20145;-71
2023/06/10 00:43:57;;;;;;;10.52;9.10;;;;;;;19.23;87.54;100115.56;4950838;28;20044;-71
2023/06/10 00:46:26;;;;;;;12.70;8.90;;;;;;;19.20;87.53;100121.22;4948418;28;20683;-70
2023/06/10 00:48:53;;;;;;;9.40;8.45;;;;;;;19.14;87.90;100119.91;4932295;28;20047;-71
2023/06/10 00:51:22;;;;;;;11.32;9.20;;;;;;;19.17;86.93;100113.44;4950679;28;20057;-71
2023/06/10 00:53:49;;;;;;;10.48;9.48;;;;;;;19.16;86.82;100120.66;4936986;28;20067;-71
2023/06/10 00:56:16;;;;;;;11.80;9.45;;;;;;;19.08;86.93;100103.50;4945008;28;20055;-70
2023/06/10 00:58:43;;;;;;;10.52;9.43;;;;;;;19.13;87.89;100123.59;4939549;29;20040;-69
2023/06/10 01:01:13;;;;;;;9.73;8.60;;;;;;;19.11;87.18;100114.81;4961621;28;20046;-70
2023/06/10 01:03:40;;;;;;;11.38;9.35;;;;;;;19.08;87.00;100122.28;4963290;28;20051;-70
2023/06/10 01:06:31;;;;;;;10.48;9.38;;;;;;;19.03;86.68;100120.00;4927249;28;20055;-71
2023/06/10 01:09:20;;;;;;;10.05;9.05;;;;;;;19.06;88.11;100129.59;4946658;28;20614;-70
2023/06/10 01:11:58;;;;;;;9.95;8.95;;;;;;;19.04;88.98;100115.50;4932163;29;20066;-70
2023/06/10 01:14:26;;;;;;;11.93;9.30;;;;;;;19.08;89.43;100123.13;4949305;29;20047;-70
2023/06/10 01:16:53;;;;;;;11.02;8.90;;;;;;;19.06;88.91;100125.09;4946769;28;20517;-71
2023/06/10 01:19:23;;;;;;;10.35;9.30;;;;;;;19.06;88.89;100127.78;4951508;28;20051;-71
2023/06/10 01:21:51;;;;;;;12.60;9.77;;;;;;;19.02;88.39;100123.69;4930521;28;20130;-70
2023/06/10 01:24:19;;;;;;;11.75;8.77;;;;;;;19.00;87.56;100132.84;4929852;29;20048;-70
2023/06/10 01:26:50;;;;;;;11.43;8.95;;;;;;;18.97;86.78;100119.69;4932501;29;20047;-70
2023/06/10 01:29:26;;;;;;;9.52;8.63;;;;;;;18.94;86.76;100126.16;4931565;28;20159;-70
2023/06/10 01:32:06;;;;;;;10.70;8.77;;;;;;;18.90;86.67;100128.25;4947317;28;20153;-70
2023/06/10 01:34:33;;;;;;;10.05;9.05;;;;;;;18.88;87.77;100132.06;4947124;28;20127;-70
2023/06/10 01:37:03;;;;;;;11.23;9.88;;;;;;;18.77;88.63;100121.38;4950775;28;20047;-71
2023/06/10 01:39:32;;;;;;;10.88;9.73;;;;;;;18.77;87.14;100122.22;4933376;28;20429;-70
2023/06/10 01:42:00;;;;;;;10.35;8.85;;;;;;;18.79;87.19;100131.00;4938077;28;20043;-70
2023/06/10 01:44:29;;;;;;;10.57;8.80;;;;;;;18.73;86.75;100122.66;4944660;28;20843;-70
2023/06/10 01:46:59;;;;;;;10.00;8.98;;;;;;;18.76;87.78;100136.63;4946156;28;20043;-70
2023/06/10 01:49:26;;;;;;;10.00;8.88;;;;;;;18.66;87.62;100118.75;4949643;28;20112;-70
2023/06/10 01:51:56;;;;;;;9.50;8.48;;;;;;;18.68;87.02;100125.72;4933541;28;20079;-69
2023/06/10 01:54:25;;;;;;;11.32;8.77;;;;;;;18.65;87.19;100119.75;4930786;28;20055;-71
2023/06/10 01:56:51;;;;;;;11.48;8.93;;;;;;;18.65;87.90;100131.31;4930341;29;20044;-70
2023/06/10 01:59:18;;;;;;;10.63;9.13;;;;;;;18.65;89.52;100133.16;4930907;28;20043;-71
2023/06/10 02:01:46;;;;;;;10.15;8.95;;;;;;;18.61;89.14;100126.34;4946846;28;20059;-70
2023/06/10 02:04:12;;;;;;;10.73;8.93;;;;;;;18.52;88.48;100118.06;4936276;29;20641;-71
2023/06/10 02:06:39;;;;;;;10.02;9.02;;;;;;;18.60;87.02;100132.69;4943053;29;20050;-70
2023/06/10 02:09:06;;;;;;;11.07;9.05;;;;;;;18.50;86.93;100122.72;4947578;28;20043;-72
2023/06/10 02:11:32;;;;;;;10.02;8.38;;;;;;;18.54;86.31;100134.88;4946945;28;20095;-71
2023/06/10 02:14:02;;;;;;;10.38;8.73;;;;;;;18.52;86.40;100142.22;4946531;28;20107;-70
2023/06/10 02:16:29;;;;;;;11.20;9.20;;;;;;;18.51;86.76;100136.97;4945770;28;20053;-70
2023/06/10 02:18:56;;;;;;;9.85;8.77;;;;;;;18.43;86.46;100121.50;4951107;28;20078;-70
2023/06/10 02:21:22;;;;;;;9.27;8.38;;;;;;;18.40;86.95;100127.16;4960679;28;20114;-71
2023/06/10 02:23:49;;;;;;;11.25;8.85;;;;;;;18.42;86.55;100137.72;4962046;29;20113;-69
2023/06/10 02:26:18;;;;;;;9.88;8.82;;;;;;;18.44;86.82;100138.44;4951347;28;20054;-69
2023/06/10 02:28:46;;;;;;;9.57;8.57;;;;;;;18.40;86.87;100131.66;4935891;29;20051;-70
2023/06/10 02:31:13;;;;;;;9.50;8.50;;;;;;;18.37;86.83;100134.59;4920184;29;20774;-70
2023/06/10 02:33:43;;;;;;;12.35;9.40;;;;;;;18.35;86.96;100141.91;4953905;28;20043;-70
2023/06/10 02:36:12;;;;;;;9.50;8.50;;;;;;;18.29;87.64;100140.56;4938637;28;20039;-70
2023/06/10 02:38:40;;;;;;;10.50;8.25;;;;;;;18.19;88.45;100134.28;4936401;29;20130;-71
2023/06/10 02:41:07;;;;;;;10.07;9.07;;;;;;;18.24;88.70;100145.50;4944863;28;20138;-72
2023/06/10 02:43:35;;;;;;;9.63;8.63;;;;;;;18.27;87.63;100137.16;4946502;28;20051;-70
2023/06/10 02:46:03;;;;;;;11.50;9.20;;;;;;;18.23;87.19;100143.78;4947859;28;20130;-70
2023/06/10 02:48:30;;;;;;;9.70;8.48;;;;;;;18.20;87.30;100139.53;4949230;28;20110;-71
2023/06/10 02:50:58;;;;;;;11.43;9.15;;;;;;;18.17;87.88;100145.13;4930101;29;20223;-71
2023/06/10 02:53:25;;;;;;;10.60;8.57;;;;;;;18.13;87.99;100132.97;4931572;29;20050;-71
2023/06/10 02:55:52;;;;;;;10.43;9.02;;;;;;;18.08;88.80;100145.06;4930540;29;20049;-71
2023/06/10 02:58:18;;;;;;;9.65;8.65;;;;;;;18.05;89.30;100146.16;4945135;28;20114;-71
2023/06/10 03:00:45;;;;;;;10.43;8.93;;;;;;;18.00;89.74;100145.66;4932250;28;20055;-71
2023/06/10 03:03:13;;;;;;;10.68;8.75;;;;;;;17.96;90.24;100146.88;4930494;28;20154;-70
2023/06/10 03:05:42;;;;;;;10.35;9.00;;;;;;;17.96;89.94;100149.56;4948167;28;20039;-70
2023/06/10 03:08:10;;;;;;;10.70;8.88;;;;;;;17.86;90.74;100135.22;4947458;28;20048;-70
2023/06/10 03:10:36;;;;;;;10.02;9.00;;;;;;;17.88;91.08;100144.84;4934596;29;20189;-71
2023/06/10 03:13:03;;;;;;;11.07;8.75;;;;;;;17.88;91.07;100144.84;4930788;29;20043;-70
2023/06/10 03:15:32;;;;;;;10.18;9.00;;;;;;;17.86;91.21;100152.16;4931904;29;20070;-69
2023/06/10 03:18:00;;;;;;;14.48;8.98;;;;;;;17.78;91.24;100141.22;4927271;29;20062;-70
2023/06/10 03:20:28;;;;;;;11.13;8.77;;;;;;;17.86;91.67;100151.28;4950277;28;20047;-70
2023/06/10 03:22:55;;;;;;;13.68;9.35;;;;;;;17.81;92.20;100140.94;4944175;28;20055;-70
2023/06/10 03:25:22;;;;;;;9.38;8.25;;;;;;;17.81;91.08;100148.97;4945114;28;20040;-70
2023/06/10 03:27:49;;;;;;;10.85;8.85;;;;;;;17.83;90.22;100147.03;4943948;28;20139;-72
2023/06/10 03:30:17;;;;;;;11.73;8.88;;;;;;;17.84;90.61;100154.09;4945116;28;20044;-72
2023/06/10 03:32:44;;;;;;;9.45;8.43;;;;;;;17.80;90.08;100147.28;4947007;28;20047;-72
2023/06/10 03:35:11;;;;;;;9.90;8.90;;;;;;;17.84;90.35;100146.06;4932736;29;21663;-72
2023/06/10 03:37:41;;;;;;;10.82;9.05;;;;;;;17.94;90.59;100164.09;4933203;29;20056;-71
2023/06/10 03:40:08;;;;;;;11.00;9.00;;;;;;;17.96;90.21;100160.28;4924737;29;20098;-71
2023/06/10 03:42:35;;;;;;;9.40;8.15;;;;;;;17.93;89.72;100152.50;4946410;28;20047;-71
2023/06/10 03:45:04;;;;;;;10.10;8.40;;;;;;;17.92;89.20;100155.31;4927388;28;20504;-71
2023/06/10 03:47:37;;;;;;;9.60;8.60;;;;;;;17.95;89.34;100168.44;4944750;28;20094;-71
2023/06/10 03:50:04;;;;;;;10.38;8.02;;;;;;;17.90;89.58;100159.94;4950720;28;20053;-71
2023/06/10 03:52:33;;;;;;;10.07;9.07;;;;;;;17.97;89.25;100170.03;4949771;28;20146;-71
2023/06/10 03:54:59;;;;;;;12.43;8.68;;;;;;;17.98;87.89;100168.19;4932082;28;20079;-71
2023/06/10 03:57:28;;;;;;;10.23;8.32;;;;;;;17.95;88.64;100166.59;4950398;29;20055;-70
2023/06/10 03:59:56;;;;;;;10.32;8.43;;;;;;;17.95;87.88;100176.47;4957904;28;20043;-71
2023/06/10 04:02:23;;;;;;;9.13;8.18;;;;;;;17.94;86.55;100169.44;4935766;29;20038;-71
2023/06/10 04:04:51;;;;;;;9.15;7.55;;;;;;;17.92;86.15;100172.25;4951769;28;20529;-71
2023/06/10 04:07:20;;;;;;;8.90;8.10;;;;;;;17.95;85.62;100168.44;4930893;29;20043;-70
2023/06/10 04:09:47;;;;;;;10.30;8.15;;;;;;;18.03;87.11;100176.72;4930598;29;20134;-72
2023/06/10 04:12:14;;;;;;;9.73;8.00;;;;;;;18.07;87.06;100179.03;4916361;28;20043;-71
2023/06/10 04:14:43;;;;;;;9.98;7.70;;;;;;;18.10;87.50;100181.44;4935657;29;20047;-71
2023/06/10 04:17:11;;;;;;;10.02;8.27;;;;;;;18.12;84.82;100184.00;4931665;28;20051;-71
2023/06/10 04:19:38;;;;;;;8.35;7.55;;;;;;;18.08;84.45;100172.69;4946068;28;20051;-71
2023/06/10 04:22:09;;;;;;;8.93;7.80;;;;;;;18.15;82.83;100189.13;4931506;28;20513;-71
2023/06/10 04:24:35;;;;;;;10.35;7.70;;;;;;;18.18;83.52;100183.50;4948948;28;20098;-69
2023/06/10 04:27:03;;;;;;;9.70;7.85;;;;;;;18.21;82.82;100184.13;4949952;28;20047;-71
2023/06/10 04:29:30;;;;;;;10.27;7.63;;;;;;;18.19;83.13;100166.44;4929472;28;20074;-71
2023/06/10 04:31:58;;;;;;;10.45;8.32;;;;;;;18.30;81.90;100193.22;4932434;28;20142;-71
2023/06/10 04:34:25;;;;;;;9.07;8.10;;;;;;;18.21;82.91;100159.13;4918686;29;20043;-70
2023/06/10 04:36:52;;;;;;;9.00;8.10;;;;;;;18.36;85.53;100181.16;4932714;28;20050;-71
2023/06/10 04:39:20;;;;;;;9.90;8.18;;;;;;;18.29;85.34;100169.22;4950627;28;20043;-70
2023/06/10 04:41:49;;;;;;;9.15;7.93;;;;;;;18.38;84.16;100188.09;4949777;28;20126;-70
2023/06/10 04:44:16;;;;;;;11.73;8.32;;;;;;;18.35;85.18;100180.28;4933115;28;20047;-71
2023/06/10 04:46:42;;;;;;;9.60;7.95;;;;;;;18.35;84.96;100174.94;4933889;29;20145;-71
2023/06/10 04:49:09;;;;;;;10.10;8.23;;;;;;;18.38;84.14;100180.03;4951945;28;20059;-71
2023/06/10 04:51:35;;;;;;;8.60;7.65;;;;;;;18.37;83.11;100177.50;4935960;28;20580;-71
2023/06/10 04:54:03;;;;;;;10.35;8.45;;;;;;;18.36;83.00;100176.63;4934964;28;20051;-72
2023/06/10 04:56:30;;;;;;;11.20;8.30;;;;;;;18.46;83.25;100187.44;4947262;28;20765;-71
2023/06/10 04:58:59;;;;;;;10.25;8.48;;;;;;;18.54;84.55;100185.00;4944255;28;20498;-71
2023/06/10 05:01:27;;;;;;;13.43;8.02;;;;;;;18.60;81.68;100178.28;4928623;29;20047;-72
2023/06/10 05:03:54;;;;;;;9.13;7.82;;;;;;;18.54;82.53;100160.84;4946182;28;20051;-71
2023/06/10 05:06:21;;;;;;;9.65;8.07;;;;;;;18.64;83.07;100166.31;4935798;29;20047;-70
2023/06/10 05:08:47;;;;;;;10.27;7.95;;;;;;;18.70;80.27;100173.84;4937287;29;20051;-72
2023/06/10 05:11:15;;;;;;;10.68;7.63;;;;;;;18.79;79.86;100184.66;4951111;28;20062;-70
2023/06/10 05:13:42;;;;;;;9.23;7.72;;;;;;;18.83;79.06;100174.53;4936716;28;20083;-71
2023/06/10 05:16:09;;;;;;;11.52;8.35;;;;;;;18.89;79.37;100174.84;4926850;28;20524;-71
2023/06/10 05:18:36;;;;;;;11.40;7.40;;;;;;;18.97;77.05;100165.28;4947812;28;20638;-72
2023/06/10 05:21:03;;;;;;;11.13;7.70;;;;;;;19.08;77.19;100178.63;4946110;28;20859;-72
2023/06/10 05:23:32;;;;;;;8.85;7.72;;;;;;;19.12;76.15;100174.72;4933257;29;20043;-72
2023/06/10 05:25:59;;;;;;;8.23;7.38;;;;;;;19.23;75.96;100188.91;4931932;29;20413;-71
2023/06/10 05:28:26;;;;;;;10.18;7.45;;;;;;;19.30;77.91;100180.34;4945291;28;20489;-71
2023/06/10 05:30:53;;;;;;;9.68;7.43;;;;;;;19.38;73.77;100193.94;4932911;28;20043;-71
2023/06/10 05:33:22;;;;;;;8.80;7.40;;;;;;;19.39;73.42;100176.84;4930532;28;20058;-71
2023/06/10 05:35:48;;;;;;;8.00;7.05;;;;;;;19.50;71.68;100185.72;4951180;28;20067;-70
2023/06/10 05:38:15;;;;;;;9.18;7.07;;;;;;;19.64;72.99;100191.72;4934905;28;20138;-70
2023/06/10 05:40:42;;;;;;;10.07;7.57;;;;;;;19.70;70.06;100183.09;4949010;28;20051;-71
2023/06/10 05:43:09;;;;;;;7.28;6.57;;;;;;;19.71;69.34;100176.72;4955214;28;20119;-72
2023/06/10 05:45:40;;;;;;;9.43;7.03;;;;;;;19.89;66.89;100197.47;4935612;29;20123;-70
2023/06/10 05:48:06;;;;;;;;;;;;;;;20.01;70.27;100195.50;4946635;28;20317;-72
2023/06/10 05:50:38;;;;;;;7.85;6.68;;;;;;;20.10;70.58;100196.53;4932955;29;19930;-71
2023/06/10 05:53:06;;;;;;;8.43;6.95;;;;;;;20.18;68.63;100202.91;4931815;28;20074;-71
2023/06/10 05:55:33;;;;;;;8.10;6.47;;;;;;;20.20;67.59;100189.34;4948227;28;20130;-70
2023/06/10 05:58:01;;;;;;;7.38;6.63;;;;;;;20.37;67.07;100201.28;4928472;28;20055;-70
2023/06/10 06:00:27;;;;;;;9.00;6.97;;;;;;;20.36;68.33;100183.41;4928904;29;20057;-70
2023/06/10 06:02:58;;;;;;;9.70;7.15;;;;;;;20.43;66.85;100185.44;4928378;28;20054;-69
2023/06/10 06:05:25;;;;;;;11.07;7.30;;;;;;;20.57;66.47;100195.78;4929665;29;20585;-70
2023/06/10 06:07:52;;;;;;;8.30;6.78;;;;;;;20.74;65.58;100194.25;4947071;28;20516;-69
2023/06/10 06:10:19;;;;;;;8.57;7.30;;;;;;;20.92;64.78;100186.31;4949846;28;20058;-71
2023/06/10 06:12:45;;;;;;;9.35;7.43;;;;;;;21.21;62.68;100180.91;4932814;29;20051;-72
2023/06/10 06:15:13;;;;;;;8.95;6.63;;;;;;;21.57;61.40;100198.06;4947694;28;20836;-72
2023/06/10 06:17:39;;;;;;;8.30;6.97;;;;;;;21.95;59.45;100208.72;4945456;28;20063;-70
2023/06/10 06:20:07;;;;;;;9.02;6.65;;;;;;;22.34;57.39;100189.66;4951402;28;20450;-71
2023/06/10 06:22:37;;;;;;;8.80;6.25;;;;;;;22.83;56.85;100195.53;4926477;29;20040;-71
2023/06/10 06:25:04;;;;;;;7.53;6.70;;;;;;;23.33;54.21;100190.34;4946825;28;20045;-71
2023/06/10 06:27:31;;;;;;;7.00;6.25;;;;;;;23.80;52.15;100190.81;4949665;28;20043;-72
2023/06/10 06:29:57;;;;;;;7.45;5.85;;;;;;;24.27;51.91;100184.94;4931143;29;20103;-71
2023/06/10 06:32:27;;;;;;;7.50;6.50;;;;;;;24.61;49.03;100182.16;4947062;28;20047;-72
2023/06/10 06:34:54;;;;;;;9.30;7.18;;;;;;;24.69;49.84;100188.44;4933371;28;20050;-71
2023/06/10 06:37:23;;;;;;;7.93;6.50;;;;;;;24.82;48.82;100186.06;4917513;28;20118;-70
2023/06/10 06:39:54;;;;;;;8.75;6.07;;;;;;;24.99;50.22;100196.94;4943613;28;20051;-70
2023/06/10 06:42:21;;;;;;;10.52;6.40;;;;;;;25.06;48.10;100177.09;4930030;28;20141;-71
2023/06/10 06:44:48;;;;;;;7.20;5.80;;;;;;;25.32;47.68;100201.31;4925223;29;20056;-71
2023/06/10 06:47:14;;;;;;;10.43;6.53;;;;;;;25.28;46.75;100202.66;4947778;28;20129;-70
2023/06/10 06:49:42;;;;;;;11.02;6.20;;;;;;;25.50;49.94;100204.66;4950200;28;20094;-71
2023/06/10 06:52:09;;;;;;;8.70;6.22;;;;;;;25.68;46.87;100198.19;4948585;28;20102;-71
2023/06/10 06:54:36;;;;;;;7.30;6.60;;;;;;;25.71;46.21;100197.88;4934602;29;20047;-70
2023/06/10 06:57:03;;;;;;;8.10;6.53;;;;;;;25.90;44.54;100211.03;4944007;28;20071;-71
2023/06/10 06:59:31;;;;;;;8.75;6.45;;;;;;;25.74;45.86;100195.66;4929532;29;20142;-73
2023/06/10 07:01:59;;;;;;;6.75;6.05;;;;;;;25.95;44.86;100210.50;4931342;28;20129;-71
2023/06/10 07:04:27;;;;;;;8.20;5.97;;;;;;;26.06;45.37;100208.25;4944836;28;20048;-73
2023/06/10 07:06:55;;;;;;;6.75;5.90;;;;;;;26.06;46.28;100202.81;4928065;29;20055;-71
2023/06/10 07:09:22;;;;;;;7.00;5.80;;;;;;;26.25;43.93;100206.13;4934152;29;20713;-71
2023/06/10 07:11:50;;;;;;;8.65;6.43;;;;;;;26.32;43.60;100209.84;4930066;29;20103;-71
2023/06/10 07:14:16;;;;;;;8.82;6.65;;;;;;;26.04;43.71;100206.72;4945234;28;20102;-70
2023/06/10 07:16:45;;;;;;;7.60;6.60;;;;;;;26.00;45.89;100208.94;4946217;28;20043;-70
2023/06/10 07:19:12;;;;;;;7.00;6.30;;;;;;;26.16;46.17;100218.88;4937554;28;20126;-71
2023/06/10 07:21:39;;;;;;;7.75;6.22;;;;;;;26.40;44.80;100226.94;4944636;28;20093;-72
2023/06/10 07:24:06;;;;;;;9.82;6.13;;;;;;;26.55;44.30;100210.75;4948431;28;20054;-69
2023/06/10 07:26:33;;;;;;;7.10;5.85;;;;;;;26.73;43.35;100219.44;4939673;29;20126;-71
2023/06/10 07:29:00;;;;;;;8.30;6.28;;;;;;;26.80;44.23;100223.13;4937059;29;20039;-70
2023/06/10 07:31:29;;;;;;;8.70;6.45;;;;;;;26.93;44.03;100217.06;4948338;28;20079;-71
2023/06/10 07:33:57;;;;;;;7.82;6.70;;;;;;;27.15;43.77;100215.41;4936693;29;20050;-71
2023/06/10 07:36:27;;;;;;;8.25;6.57;;;;;;;27.03;42.93;100214.16;4955959;28;20049;-71
2023/06/10 07:38:56;;;;;;;9.45;7.90;;;;;;;26.98;45.58;100208.41;4935253;29;20047;-71
2023/06/10 07:41:26;;;;;;;9.13;6.22;;;;;;;27.27;44.43;100210.38;4938369;28;20051;-72
2023/06/10 07:43:56;;;;;;;9.38;6.53;;;;;;;27.53;43.25;100205.38;4952971;28;20126;-71
2023/06/10 07:46:24;;;;;;;7.65;6.50;;;;;;;27.49;42.22;100207.59;4952459;28;20051;-74
2023/06/10 07:48:51;;;;;;;9.07;6.38;;;;;;;27.55;43.46;100215.00;4936226;29;20058;-71
2023/06/10 07:51:19;;;;;;;11.10;6.80;;;;;;;27.73;42.31;100202.94;4938196;29;20098;-72
2023/06/10 07:53:46;;;;;;;7.35;6.47;;;;;;;27.84;42.68;100208.78;4939505;28;20049;-70
2023/06/10 07:56:14;;;;;;;8.15;6.68;;;;;;;27.98;42.33;100207.09;4929126;29;20052;-71
2023/06/10 07:58:41;;;;;;;7.38;6.45;;;;;;;27.90;41.56;100216.19;4953793;28;20429;-72
2023/06/10 08:01:08;;;;;;;8.57;6.80;;;;;;;27.88;41.44;100201.06;4940758;28;20055;-72
2023/06/10 08:03:35;;;;;;;8.25;6.72;;;;;;;28.05;39.44;100201.72;4938343;29;20055;-72
2023/06/10 08:06:02;;;;;;;8.30;7.03;;;;;;;27.65;40.41;100211.22;4954783;28;20121;-71
2023/06/10 08:08:29;;;;;;;11.35;6.57;;;;;;;27.31;41.22;100217.13;4928620;28;20143;-71
2023/06/10 08:10:58;;;;;;;11.23;6.90;;;;;;;27.22;41.65;100195.47;4939627;29;20099;-72
2023/06/10 08:13:25;;;;;;;12.27;7.03;;;;;;;27.43;41.32;100215.66;4950821;28;20062;-71
2023/06/10 08:15:53;;;;;;;11.85;7.20;;;;;;;27.36;41.80;100207.41;4951645;28;20130;-72
2023/06/10 08:18:20;;;;;;;8.32;6.47;;;;;;;27.38;42.82;100210.78;4955737;28;20134;-71
2023/06/10 08:20:46;;;;;;;7.93;6.45;;;;;;;27.48;42.48;100205.91;4953565;28;20047;-71
2023/06/10 08:23:14;;;;;;;8.93;7.05;;;;;;;27.61;41.80;100201.72;4934166;28;20733;-73
2023/06/10 08:25:42;;;;;;;9.68;6.53;;;;;;;27.78;41.27;100211.41;4936505;29;20569;-72
2023/06/10 08:28:08;;;;;;;8.18;6.38;;;;;;;27.91;41.49;100206.13;4943640;28;20469;-72
2023/06/10 08:30:35;;;;;;;7.70;6.45;;;;;;;27.97;41.01;100210.00;4950393;28;20425;-71
2023/06/10 08:33:04;;;;;;;8.15;6.70;;;;;;;27.95;40.87;100212.91;4935974;29;20078;-71
2023/06/10 08:35:31;;;;;;;6.60;5.95;;;;;;;27.66;40.41;100215.63;4952253;28;20047;-70
2023/06/10 08:37:59;;;;;;;11.60;6.03;;;;;;;27.26;42.04;100198.66;4950779;28;20116;-72
2023/06/10 08:40:26;;;;;;;7.82;6.13;;;;;;;27.15;42.07;100208.09;4933314;29;20047;-72
2023/06/10 08:43:06;;;;;;;9.43;6.50;;;;;;;27.27;41.83;100213.09;4952143;28;20075;-73
2023/06/10 08:45:36;;;;;;;10.60;6.32;;;;;;;27.49;41.60;100207.59;4931351;28;21318;-72
2023/06/10 08:48:07;;;;;;;6.43;5.70;;;;;;;27.63;39.96;100208.69;4930659;28;20054;-71
2023/06/10 08:50:36;;;;;;;7.43;6.10;;;;;;;27.70;40.64;100211.50;4946119;28;20518;-70
2023/06/10 08:53:05;;;;;;;8.32;6.35;;;;;;;27.61;40.52;100210.75;4950199;28;20043;-71
2023/06/10 08:55:43;;;;;;;7.45;6.28;;;;;;;27.69;40.27;100202.50;4934058;28;20138;-72
2023/06/10 08:58:11;;;;;;;6.57;5.80;;;;;;;27.71;40.69;100196.84;4932948;29;20079;-71
2023/06/10 09:00:37;;;;;;;8.77;6.22;;;;;;;27.87;40.41;100183.91;4924269;28;20090;-72
2023/06/10 09:03:05;;;;;;;9.45;6.85;;;;;;;27.99;39.74;100197.88;4930392;29;20044;-72
2023/06/10 09:05:34;;;;;;;7.28;6.45;;;;;;;27.88;40.27;100190.19;4939766;28;20660;-71
2023/06/10 09:08:01;;;;;;;6.78;5.63;;;;;;;27.87;40.30;100185.78;4926442;29;21106;-72
2023/06/10 09:10:28;;;;;;;8.38;6.25;;;;;;;27.96;39.92;100197.41;4942841;28;20485;-72
2023/06/10 09:12:54;;;;;;;6.50;5.70;;;;;;;28.14;41.00;100189.69;4950450;28;20051;-72
2023/06/10 09:15:21;;;;;;;6.57;5.97;;;;;;;28.39;39.92;100188.34;4937853;28;20043;-71
2023/06/10 09:17:48;;;;;;;9.65;6.50;;;;;;;28.31;39.22;100180.31;4926688;29;20058;-72
2023/06/10 09:20:15;;;;;;;6.10;5.50;;;;;;;27.99;40.33;100180.72;4943212;28;20106;-71
2023/06/10 09:22:42;;;;;;;6.93;6.25;;;;;;;27.75;40.61;100185.41;4949974;28;20055;-73
2023/06/10 09:25:11;;;;;;;7.70;6.50;;;;;;;27.50;41.15;100182.09;4941868;29;20059;-73
2023/06/10 09:27:56;;;;;;;8.73;6.30;;;;;;;27.40;42.15;100192.38;4950962;28;20382;-72
2023/06/10 09:30:34;;;;;;;6.93;6.30;;;;;;;27.36;41.97;100188.38;4934078;29;20054;-71
2023/06/10 09:33:09;;;;;;;7.40;6.32;;;;;;;27.34;42.00;100187.69;4935585;29;20043;-71
2023/06/10 09:35:36;;;;;;;7.80;6.03;;;;;;;27.33;42.70;100185.16;4948164;28;20510;-71
2023/06/10 09:38:03;;;;;;;7.00;6.30;;;;;;;27.42;42.15;100189.47;4933122;28;20053;-72
2023/06/10 09:40:30;;;;;;;7.32;6.28;;;;;;;27.53;41.52;100175.44;4931089;28;20052;-72
2023/06/10 09:43:02;;;;;;;6.45;5.88;;;;;;;27.37;41.04;100173.75;4934239;29;20413;-71
2023/06/10 09:45:32;;;;;;;8.70;6.18;;;;;;;27.28;41.28;100191.16;4929887;29;20057;-72
2023/06/10 09:48:01;;;;;;;7.57;6.07;;;;;;;27.14;42.22;100173.78;4947611;28;20051;-71
2023/06/10 09:50:34;;;;;;;8.68;6.35;;;;;;;27.24;41.99;100185.22;4930984;28;20162;-71
2023/06/10 09:53:04;;;;;;;6.60;5.88;;;;;;;27.20;42.03;100169.50;4938455;29;20463;-71
2023/06/10 09:55:33;;;;;;;;;;;;;;;27.34;41.89;100185.00;4953727;28;20039;-69
2023/06/10 09:58:01;;;;;;;7.30;5.95;;;;;;;27.39;41.26;100182.53;4951801;29;19923;-71
2023/06/10 10:00:31;;;;;;;8.45;6.20;;;;;;;27.39;41.70;100171.66;4949994;28;20391;-73
2023/06/10 10:03:00;;;;;;;8.43;5.95;;;;;;;27.38;41.79;100161.00;4950894;28;20047;-70
2023/06/10 10:05:32;;;;;;;10.88;6.45;;;;;;;27.44;41.65;100163.78;4948608;28;20093;-71
2023/06/10 10:08:00;;;;;;;7.40;6.22;;;;;;;27.53;41.48;100157.25;4931121;29;20047;-73
2023/06/10 10:10:27;;;;;;;7.53;5.70;;;;;;;27.56;41.62;100161.44;4944519;28;20798;-72
2023/06/10 10:12:58;;;;;;;9.02;6.03;;;;;;;27.51;41.03;100140.28;4930260;29;20043;-73
2023/06/10 10:15:28;;;;;;;;;;;;;;;27.70;40.88;100151.66;4931586;28;20047;-72
2023/06/10 10:18:06;;;;;;;6.55;5.80;;;;;;;27.78;41.16;100155.09;4949864;28;19929;-72
2023/06/10 10:20:40;;;;;;;6.53;5.93;;;;;;;27.89;40.60;100159.22;4927091;28;20129;-72
2023/06/10 10:23:08;;;;;;;8.05;6.38;;;;;;;28.04;40.90;100142.84;4946729;28;20540;-70
2023/06/10 10:25:37;;;;;;;6.50;5.88;;;;;;;28.22;40.09;100146.88;4946330;28;20054;-71
2023/06/10 10:28:07;;;;;;;6.95;6.20;;;;;;;28.27;39.30;100149.88;4947111;28;20047;-72
2023/06/10 10:30:42;;;;;;;6.23;5.50;;;;;;;28.22;40.07;100146.88;4931038;29;20062;-71
2023/06/10 10:33:33;;;;;;;7.85;5.90;;;;;;;28.24;40.25;100147.53;4929547;29;20570;-72
2023/06/10 10:36:07;;;;;;;6.32;5.70;;;;;;;28.18;39.70;100128.38;4944916;28;20051;-71
2023/06/10 10:38:36;;;;;;;9.68;5.70;;;;;;;28.38;39.75;100137.63;4940553;28;20063;-70
2023/06/10 10:41:04;;;;;;;7.75;5.65;;;;;;;28.46;39.65;100140.25;4931603;29;20574;-72
2023/06/10 10:43:32;;;;;;;6.53;5.45;;;;;;;28.56;39.63;100135.31;4947436;28;20051;-72
2023/06/10 10:46:00;;;;;;;8.73;5.53;;;;;;;28.76;37.59;100140.97;4930112;29;20074;-71
2023/06/10 10:48:34;;;;;;;8.23;6.05;;;;;;;28.68;37.11;100127.44;4929024;28;20532;-73
2023/06/10 10:51:02;;;;;;;7.75;5.40;;;;;;;28.89;37.75;100141.09;4929318;29;21400;-73
2023/06/10 10:53:29;;;;;;;8.48;5.75;;;;;;;28.91;37.10;100132.72;4944348;28;20047;-71
2023/06/10 10:56:14;;;;;;;7.40;5.70;;;;;;;28.88;37.77;100136.69;4929531;29;20546;-71
2023/06/10 10:58:40;;;;;;;5.65;5.15;;;;;;;28.68;36.63;100127.44;4926127;28;20493;-71
2023/06/10 11:01:14;;;;;;;7.38;5.32;;;;;;;28.48;36.71;100127.28;4949822;28;20047;-73
2023/06/10 11:03:46;;;;;;;6.18;5.22;;;;;;;28.21;37.37;100131.59;4933390;28;20075;-71
2023/06/10 11:06:15;;;;;;;7.20;5.18;;;;;;;28.11;37.30;100130.19;4930488;29;20465;-71
2023/06/10 11:08:47;;;;;;;6.45;5.18;;;;;;;28.20;37.24;100124.44;4932601;28;20066;-72
2023/06/10 11:11:27;;;;;;;8.18;5.13;;;;;;;28.33;36.83;100126.50;4953292;28;20125;-70
2023/06/10 11:14:04;;;;;;;6.05;5.30;;;;;;;28.50;36.65;100124.34;4925227;28;20054;-72
2023/06/10 11:16:39;;;;;;;6.68;5.65;;;;;;;28.44;36.84;100106.06;4950247;28;21252;-71
2023/06/10 11:19:06;;;;;;;5.30;4.80;;;;;;;28.41;36.66;100106.44;4950960;28;20484;-73
2023/06/10 11:21:56;;;;;;;5.68;5.18;;;;;;;28.67;36.59;100106.69;4934748;28;20535;-72
2023/06/10 11:24:25;;;;;;;8.05;5.15;;;;;;;28.90;35.79;100104.63;4932581;29;20047;-72
2023/06/10 11:26:52;;;;;;;7.32;4.80;;;;;;;29.13;35.35;100104.38;4952538;28;20390;-72
2023/06/10 11:29:21;;;;;;;6.00;4.73;;;;;;;29.32;34.52;100102.81;4950318;28;20043;-72